createdAt,value
2018-08-17T00:01:46.044Z,53.30
2018-08-17T00:04:16.105Z,53.15
2018-08-17T00:06:46.267Z,52.50
2018-08-17T00:09:16.270Z,51.63
2018-08-17T00:11:46.390Z,51.54
2018-08-17T00:14:16.445Z,51.33
2018-08-17T00:16:46.491Z,50.89
2018-08-17T00:19:16.511Z,50.36
2018-08-17T00:21:46.564Z,50.67
2018-08-17T00:24:16.603Z,50.71
2018-08-17T00:26:46.674Z,50.76
2018-08-17T00:29:16.726Z,50.71
2018-08-17T00:31:46.778Z,50.83
2018-08-17T00:34:16.812Z,50.55
2018-08-17T00:36:47.742Z,50.43
2018-08-17T00:39:17.751Z,49.69
2018-08-17T00:41:47.838Z,49.66
2018-08-17T00:44:17.899Z,49.97
2018-08-17T00:46:47.968Z,50.20
2018-08-17T00:49:18.032Z,49.85
2018-08-17T00:51:48.076Z,50.09
2018-08-17T00:54:18.100Z,50.19
2018-08-17T00:56:48.134Z,49.92
2018-08-17T00:59:18.621Z,49.94
2018-08-17T01:01:48.777Z,49.98
2018-08-17T01:04:18.774Z,49.33
2018-08-17T01:06:48.790Z,49.79
2018-08-17T01:09:18.796Z,49.04
2018-08-17T01:11:48.801Z,49.09
2018-08-17T01:14:18.829Z,49.42
2018-08-17T01:16:48.882Z,48.59
2018-08-17T01:19:18.918Z,49.50
2018-08-17T01:21:48.955Z,49.23
2018-08-17T01:24:18.946Z,48.77
2018-08-17T01:26:48.986Z,48.85
2018-08-17T01:29:19.000Z,48.75
2018-08-17T01:31:48.986Z,48.85
2018-08-17T01:34:18.953Z,48.66
2018-08-17T01:36:49.008Z,48.86
2018-08-17T01:39:18.998Z,48.42
2018-08-17T01:41:48.993Z,48.34
2018-08-17T01:44:18.958Z,48.46
2018-08-17T01:46:48.969Z,48.13
2018-08-17T01:49:18.957Z,48.57
2018-08-17T01:51:49.048Z,48.77
2018-08-17T01:54:19.055Z,49.28
2018-08-17T01:56:49.096Z,49.17
2018-08-17T01:59:19.153Z,49.11
2018-08-17T02:01:49.224Z,49.36
2018-08-17T02:04:19.232Z,49.73
2018-08-17T02:06:49.293Z,49.55
2018-08-17T02:09:19.351Z,49.48
2018-08-17T02:11:49.408Z,50.28
2018-08-17T02:14:19.455Z,49.83
2018-08-17T02:16:49.505Z,50.27
2018-08-17T02:19:19.515Z,49.98
2018-08-17T02:21:49.548Z,50.04
2018-08-17T02:24:19.673Z,49.73
2018-08-17T02:26:49.685Z,50.26
2018-08-17T02:29:19.692Z,50.09
2018-08-17T02:31:49.731Z,49.85
2018-08-17T02:34:19.780Z,49.30
2018-08-17T02:36:49.813Z,49.50
2018-08-17T02:39:19.902Z,48.76
2018-08-17T02:41:49.960Z,48.67
2018-08-17T02:44:19.958Z,48.44
2018-08-17T02:46:49.975Z,48.17
2018-08-17T02:49:19.977Z,47.94
2018-08-17T02:51:49.993Z,47.87
2018-08-17T02:54:20.016Z,47.91
2018-08-17T02:56:50.025Z,47.57
2018-08-17T02:59:20.075Z,48.10
2018-08-17T03:01:50.026Z,47.69
2018-08-17T03:04:20.163Z,47.80
2018-08-17T03:06:50.185Z,48.41
2018-08-17T03:09:20.206Z,48.15
2018-08-17T03:11:50.175Z,48.68
2018-08-17T03:14:20.182Z,49.00
2018-08-17T03:16:50.794Z,49.36
2018-08-17T03:19:20.786Z,50.03
2018-08-17T03:21:50.786Z,51.05
2018-08-17T03:24:20.792Z,51.13
2018-08-17T03:26:50.802Z,51.05
2018-08-17T03:29:20.787Z,51.60
2018-08-17T03:31:50.770Z,52.07
2018-08-17T03:34:20.746Z,51.89
2018-08-17T03:36:50.724Z,52.81
2018-08-17T03:39:20.747Z,52.86
2018-08-17T03:41:50.728Z,53.38
2018-08-17T03:44:20.734Z,53.43
2018-08-17T03:46:50.735Z,53.58
2018-08-17T03:49:20.759Z,54.59
2018-08-17T03:51:50.819Z,54.20
2018-08-17T03:54:21.841Z,55.06
2018-08-17T03:56:51.832Z,54.63
2018-08-17T03:59:21.846Z,55.11
2018-08-17T04:01:51.940Z,55.54
2018-08-17T04:04:21.982Z,56.40
2018-08-17T04:06:51.987Z,56.02
2018-08-17T04:09:22.023Z,56.52
2018-08-17T04:11:52.004Z,56.43
2018-08-17T04:14:22.028Z,57.03
2018-08-17T04:16:52.028Z,57.08
2018-08-17T04:19:22.046Z,57.37
2018-08-17T04:21:52.048Z,57.19
2018-08-17T04:24:22.031Z,57.18
2018-08-17T04:26:51.994Z,57.59
2018-08-17T04:29:21.997Z,57.51
2018-08-17T04:31:51.989Z,57.11
2018-08-17T04:34:22.023Z,57.28
2018-08-17T04:36:51.986Z,57.63
2018-08-17T04:39:21.991Z,58.08
2018-08-17T04:41:52.012Z,58.28
2018-08-17T04:44:22.013Z,57.92
2018-08-17T04:46:52.259Z,58.57
2018-08-17T04:49:22.388Z,58.52
2018-08-17T04:51:52.413Z,59.04
2018-08-17T04:54:22.466Z,59.29
2018-08-17T04:56:52.452Z,59.43
2018-08-17T04:59:22.502Z,60.01
2018-08-17T05:01:52.510Z,59.94
2018-08-17T05:04:22.538Z,59.93
2018-08-17T05:06:52.514Z,60.34
2018-08-17T05:09:22.522Z,60.27
2018-08-17T05:11:52.523Z,60.42
2018-08-17T05:14:22.597Z,60.80
2018-08-17T05:16:53.026Z,60.62
2018-08-17T05:19:23.099Z,61.12
2018-08-17T05:21:53.097Z,60.84
2018-08-17T05:24:23.147Z,61.51
2018-08-17T05:26:53.172Z,61.37
2018-08-17T05:29:23.214Z,60.76
2018-08-17T05:31:53.242Z,60.94
2018-08-17T05:34:23.308Z,60.67
2018-08-17T05:36:53.324Z,60.25
2018-08-17T05:39:23.380Z,60.50
2018-08-17T05:41:53.424Z,59.90
2018-08-17T05:44:23.470Z,59.49
2018-08-17T05:46:53.472Z,59.57
2018-08-17T05:49:23.665Z,59.51
2018-08-17T05:51:53.699Z,60.25
2018-08-17T05:54:23.674Z,59.32
2018-08-17T05:56:53.704Z,59.57
2018-08-17T05:59:23.710Z,58.77
2018-08-17T06:01:53.734Z,58.33
2018-08-17T06:04:23.729Z,58.14
2018-08-17T06:06:53.727Z,58.02
2018-08-17T06:09:23.730Z,56.92
2018-08-17T06:11:53.714Z,56.52
2018-08-17T06:14:23.721Z,55.72
2018-08-17T06:16:53.766Z,55.43
2018-08-17T06:19:23.797Z,53.46
2018-08-17T06:21:53.850Z,53.65
2018-08-17T06:24:23.850Z,53.31
2018-08-17T06:26:53.872Z,53.39
2018-08-17T06:29:23.935Z,53.75
2018-08-17T06:31:53.966Z,55.70
2018-08-17T06:34:23.981Z,53.89
2018-08-17T06:36:54.003Z,54.16
2018-08-17T06:39:23.980Z,53.24
2018-08-17T06:41:53.986Z,52.99
2018-08-17T06:44:24.099Z,52.10
2018-08-17T06:46:54.206Z,52.92
2018-08-17T06:49:24.218Z,51.69
2018-08-17T06:51:54.305Z,52.26
2018-08-17T06:54:24.545Z,50.24
2018-08-17T06:56:54.777Z,50.63
2018-08-17T06:59:24.747Z,50.10
2018-08-17T07:01:54.761Z,49.65
2018-08-17T07:04:24.761Z,49.30
2018-08-17T07:06:55.277Z,49.14
2018-08-17T07:09:25.313Z,49.39
2018-08-17T07:11:55.286Z,48.05
2018-08-17T07:14:25.290Z,46.77
2018-08-17T07:16:55.457Z,45.52
2018-08-17T07:19:25.607Z,44.76
2018-08-17T07:21:55.590Z,44.51
2018-08-17T07:24:25.605Z,45.63
2018-08-17T07:26:55.681Z,45.75
2018-08-17T07:29:25.666Z,46.00
2018-08-17T07:31:55.762Z,44.59
2018-08-17T07:34:25.726Z,44.50
2018-08-17T07:36:55.713Z,45.05
2018-08-17T07:39:25.662Z,44.84
2018-08-17T07:41:55.688Z,45.67
2018-08-17T07:44:25.643Z,45.15
2018-08-17T07:46:55.645Z,44.99
2018-08-17T07:49:25.611Z,44.89
2018-08-17T07:51:55.655Z,43.80
2018-08-17T07:54:25.634Z,43.66
2018-08-17T07:56:55.639Z,45.06
2018-08-17T07:59:25.656Z,43.74
2018-08-17T08:01:55.680Z,44.88
2018-08-17T08:04:25.695Z,45.67
2018-08-17T08:06:55.717Z,44.79
2018-08-17T08:09:25.702Z,44.35
2018-08-17T08:11:55.742Z,44.32
2018-08-17T08:14:25.722Z,43.32
2018-08-17T08:16:55.755Z,44.22
2018-08-17T08:19:25.741Z,45.61
2018-08-17T08:21:55.792Z,45.99
2018-08-17T08:24:25.763Z,44.42
2018-08-17T08:26:55.762Z,44.95
2018-08-17T08:29:25.769Z,45.75
2018-08-17T08:31:55.783Z,44.93
2018-08-17T08:34:26.095Z,44.37
2018-08-17T08:36:56.134Z,44.40
2018-08-17T08:39:26.168Z,46.54
2018-08-17T08:41:56.187Z,42.72
2018-08-17T08:44:26.169Z,42.89
2018-08-17T08:46:56.172Z,41.50
2018-08-17T08:49:26.234Z,41.38
2018-08-17T08:51:56.298Z,39.91
2018-08-17T08:54:26.302Z,41.25
2018-08-17T08:56:56.283Z,39.85
2018-08-17T08:59:26.334Z,40.19
2018-08-17T09:01:56.300Z,40.56
2018-08-17T09:04:26.296Z,40.22
2018-08-17T09:06:56.276Z,40.87
2018-08-17T09:09:26.288Z,40.71
2018-08-17T09:11:56.315Z,40.62
2018-08-17T09:14:26.341Z,40.93
2018-08-17T09:16:56.314Z,41.08
2018-08-17T09:19:26.345Z,41.28
2018-08-17T09:21:56.330Z,40.35
2018-08-17T09:24:26.333Z,38.89
2018-08-17T09:26:56.321Z,37.90
2018-08-17T09:29:26.352Z,38.83
2018-08-17T09:31:56.395Z,38.14
2018-08-17T09:34:26.427Z,38.73
2018-08-17T09:36:56.425Z,38.47
2018-08-17T09:39:26.512Z,37.28
2018-08-17T09:41:56.581Z,37.42
2018-08-17T09:44:26.730Z,35.86
2018-08-17T09:46:56.847Z,35.71
2018-08-17T09:49:26.903Z,36.59
2018-08-17T09:51:56.911Z,35.14
2018-08-17T09:54:26.887Z,34.83
2018-08-17T09:56:56.863Z,35.38
2018-08-17T09:59:26.850Z,36.57
2018-08-17T10:02:01.882Z,35.17
2018-08-17T10:04:36.765Z,36.78
2018-08-17T10:07:11.807Z,34.33
2018-08-17T10:09:46.777Z,34.62
2018-08-17T10:12:16.794Z,34.21
2018-08-17T10:14:46.778Z,35.40
2018-08-17T10:17:16.733Z,35.79
2018-08-17T10:19:46.734Z,34.04
2018-08-17T10:22:16.695Z,33.11
2018-08-17T10:24:46.662Z,34.46
2018-08-17T10:27:16.668Z,34.87
2018-08-17T10:29:46.678Z,34.99
2018-08-17T10:32:16.734Z,34.04
2018-08-17T10:34:46.856Z,32.90
2018-08-17T10:37:16.864Z,33.98
2018-08-17T10:39:46.871Z,34.22
2018-08-17T10:42:16.862Z,33.71
2018-08-17T10:44:46.846Z,34.04
2018-08-17T10:47:16.845Z,33.87
2018-08-17T10:49:46.849Z,33.82
2018-08-17T10:52:16.867Z,33.23
2018-08-17T10:54:46.821Z,34.30
2018-08-17T10:57:16.881Z,33.19
2018-08-17T10:59:46.894Z,33.11
2018-08-17T11:02:16.855Z,32.40
2018-08-17T11:04:49.211Z,32.63
2018-08-17T11:07:25.227Z,32.96
2018-08-17T11:09:55.200Z,33.28
2018-08-17T11:12:25.499Z,33.38
2018-08-17T11:14:55.507Z,32.14
2018-08-17T11:17:25.496Z,34.37
2018-08-17T11:19:55.482Z,33.38
2018-08-17T11:22:25.660Z,33.58
2018-08-17T11:24:55.623Z,33.34
2018-08-17T11:27:25.687Z,33.13
2018-08-17T11:29:55.643Z,34.07
2018-08-17T11:32:25.808Z,32.70
2018-08-17T11:34:56.295Z,32.75
2018-08-17T11:37:26.454Z,32.44
2018-08-17T11:40:00.744Z,33.30
2018-08-17T11:42:48.437Z,32.66
2018-08-17T11:45:23.696Z,31.96
2018-08-17T11:47:54.458Z,33.67
2018-08-17T11:50:25.578Z,32.52
2018-08-17T11:52:58.585Z,32.83
2018-08-17T11:55:30.965Z,31.45
2018-08-17T11:58:00.929Z,32.54
2018-08-17T12:00:35.893Z,32.03
2018-08-17T12:03:07.600Z,31.46
2018-08-17T12:05:37.662Z,31.55
2018-08-17T12:08:08.075Z,32.27
2018-08-17T12:10:38.115Z,32.88
2018-08-17T12:13:13.053Z,32.95
2018-08-17T12:15:48.094Z,31.87
2018-08-17T12:18:18.113Z,30.96
2018-08-17T12:20:48.102Z,30.45
2018-08-17T12:23:18.099Z,33.36
2018-08-17T12:25:57.541Z,30.64
2018-08-17T12:28:29.714Z,30.71
2018-08-17T12:31:00.330Z,31.11
2018-08-17T12:33:30.330Z,31.04
2018-08-17T12:36:00.312Z,32.27
2018-08-17T12:38:30.260Z,31.84
2018-08-17T12:41:00.227Z,32.24
2018-08-17T12:43:37.777Z,31.69
2018-08-17T12:46:07.985Z,32.89
2018-08-17T12:48:37.938Z,32.33
2018-08-17T12:51:08.882Z,31.88
2018-08-17T12:53:38.833Z,32.13
2018-08-17T12:56:08.878Z,31.36
2018-08-17T12:58:38.810Z,31.57
2018-08-17T13:01:08.809Z,32.44
2018-08-17T13:03:38.776Z,30.94
2018-08-17T13:06:08.791Z,32.07
2018-08-17T13:08:38.764Z,31.00
2018-08-17T13:11:08.804Z,31.64
2018-08-17T13:13:38.775Z,31.84
2018-08-17T13:16:08.911Z,30.97
2018-08-17T13:18:39.495Z,30.93
2018-08-17T13:21:09.478Z,29.85
2018-08-17T13:23:39.458Z,30.97
2018-08-17T13:26:09.456Z,29.77
2018-08-17T13:28:39.442Z,29.29
2018-08-17T13:31:09.424Z,29.27
2018-08-17T13:33:39.411Z,30.90
2018-08-17T13:36:09.462Z,30.82
2018-08-17T13:38:39.420Z,30.66
2018-08-17T13:41:09.422Z,30.43
2018-08-17T13:43:39.393Z,30.86
2018-08-17T13:46:09.944Z,31.39
2018-08-17T13:48:39.932Z,30.25
2018-08-17T13:51:10.005Z,29.15
2018-08-17T13:53:40.112Z,30.33
2018-08-17T13:56:10.181Z,30.72
2018-08-17T13:58:40.198Z,31.72
2018-08-17T14:01:10.210Z,31.26
2018-08-17T14:03:41.115Z,30.88
2018-08-17T14:06:11.148Z,31.92
2018-08-17T14:08:41.154Z,30.97
2018-08-17T14:11:11.168Z,32.01
2018-08-17T14:13:41.190Z,29.24
2018-08-17T14:16:11.223Z,30.73
2018-08-17T14:18:41.254Z,30.28
2018-08-17T14:21:11.275Z,31.82
2018-08-17T14:23:41.398Z,30.26
2018-08-17T14:26:11.406Z,31.16
2018-08-17T14:28:41.767Z,30.83
2018-08-17T14:31:11.793Z,31.79
2018-08-17T14:33:41.821Z,30.79
2018-08-17T14:36:11.868Z,30.66
2018-08-17T14:38:41.895Z,28.25
2018-08-17T14:41:11.883Z,30.37
2018-08-17T14:43:41.931Z,33.41
2018-08-17T14:46:12.929Z,32.34
2018-08-17T14:48:42.988Z,31.52
2018-08-17T14:51:13.621Z,31.76
2018-08-17T14:53:43.699Z,32.08
2018-08-17T14:56:13.686Z,32.24
2018-08-17T14:58:43.715Z,32.79
2018-08-17T15:01:13.950Z,34.02
2018-08-17T15:03:45.129Z,33.64
2018-08-17T15:06:15.283Z,32.19
2018-08-17T15:08:45.476Z,33.12
2018-08-17T15:11:15.488Z,33.41
2018-08-17T15:13:45.470Z,31.61
2018-08-17T15:16:18.973Z,31.28
2018-08-17T15:18:49.248Z,32.02
2018-08-17T15:21:19.249Z,29.70
2018-08-17T15:23:49.294Z,32.37
2018-08-17T15:26:19.253Z,35.35
2018-08-17T15:28:49.302Z,35.85
2018-08-17T15:31:19.354Z,36.33
2018-08-17T15:33:49.426Z,36.96
2018-08-17T15:36:19.385Z,36.57
2018-08-17T15:38:49.466Z,37.13
2018-08-17T15:41:19.492Z,36.76
2018-08-17T15:43:49.500Z,37.95
2018-08-17T15:46:19.557Z,36.51
2018-08-17T15:48:52.481Z,37.40
2018-08-17T15:51:22.754Z,38.19
2018-08-17T15:53:52.859Z,37.67
2018-08-17T15:56:22.868Z,37.82
2018-08-17T15:58:52.884Z,38.65
2018-08-17T16:01:22.907Z,37.82
2018-08-17T16:03:52.913Z,38.64
2018-08-17T16:06:22.903Z,38.26
2018-08-17T16:08:54.833Z,39.24
2018-08-17T16:11:24.849Z,39.73
2018-08-17T16:13:55.161Z,40.38
2018-08-17T16:16:25.283Z,40.51
2018-08-17T16:18:55.231Z,41.26
2018-08-17T16:21:25.210Z,41.24
2018-08-17T16:23:55.210Z,40.74
2018-08-17T16:26:25.229Z,42.11
2018-08-17T16:28:55.250Z,42.36
2018-08-17T16:31:25.293Z,42.79
2018-08-17T16:33:55.314Z,42.53
2018-08-17T16:36:25.298Z,42.82
2018-08-17T16:38:55.296Z,42.55
2018-08-17T16:41:25.364Z,43.51
2018-08-17T16:43:55.349Z,44.44
2018-08-17T16:46:25.294Z,44.59
2018-08-17T16:48:55.350Z,44.49
2018-08-17T16:51:25.452Z,45.29
2018-08-17T16:53:55.493Z,46.38
2018-08-17T16:56:26.009Z,47.48
2018-08-17T16:58:56.288Z,48.46
2018-08-17T17:01:26.245Z,49.09
2018-08-17T17:03:56.332Z,52.48
2018-08-17T17:06:26.412Z,54.88
2018-08-17T17:09:06.036Z,55.91
2018-08-17T17:11:36.439Z,56.46
2018-08-17T17:14:06.593Z,57.56
2018-08-17T17:16:41.601Z,58.69
2018-08-17T17:19:19.099Z,59.84
2018-08-17T17:21:50.197Z,59.95
2018-08-17T17:24:20.901Z,60.47
2018-08-17T17:26:50.903Z,61.26
2018-08-17T17:29:20.908Z,61.84
2018-08-17T17:31:52.566Z,62.38
2018-08-17T17:34:22.655Z,63.08
2018-08-17T17:36:52.647Z,62.83
2018-08-17T17:39:22.695Z,64.25
2018-08-17T17:41:52.858Z,63.81
2018-08-17T17:44:22.951Z,63.92
2018-08-17T17:46:53.029Z,63.67
2018-08-17T17:49:23.910Z,63.30
2018-08-17T17:51:54.062Z,62.89
2018-08-17T17:54:26.161Z,62.83
2018-08-17T17:57:02.095Z,61.79
2018-08-17T17:59:32.364Z,62.47
2018-08-17T18:02:02.473Z,63.11
2018-08-17T18:04:36.268Z,63.16
2018-08-17T18:07:06.497Z,63.65
2018-08-17T18:09:36.474Z,63.10
2018-08-17T18:12:06.692Z,62.90
2018-08-17T18:14:37.029Z,62.63
2018-08-17T18:17:09.977Z,62.55
2018-08-17T18:19:40.032Z,63.30
2018-08-17T18:22:18.616Z,63.28
2018-08-17T18:24:48.601Z,63.54
2018-08-17T18:27:18.636Z,59.39
2018-08-17T18:29:48.579Z,59.08
2018-08-17T18:32:18.612Z,58.25
2018-08-17T18:34:48.609Z,58.08
2018-08-17T18:37:18.636Z,56.57
2018-08-17T18:39:48.628Z,56.33
2018-08-17T18:42:18.696Z,55.20
2018-08-17T18:44:48.690Z,53.98
2018-08-17T18:47:20.299Z,53.81
2018-08-17T18:49:52.134Z,54.48
2018-08-17T18:52:22.289Z,55.15
2018-08-17T18:54:52.300Z,56.43
2018-08-17T18:57:22.358Z,57.46
2018-08-17T18:59:52.360Z,58.76
2018-08-17T19:02:22.433Z,59.23
2018-08-17T19:04:52.414Z,59.78
2018-08-17T19:07:22.512Z,59.98
2018-08-17T19:09:52.477Z,60.13
2018-08-17T19:12:22.549Z,59.83
2018-08-17T19:14:52.768Z,60.40
2018-08-17T19:17:31.410Z,59.98
2018-08-17T19:20:01.486Z,60.80
2018-08-17T19:22:40.305Z,60.86
2018-08-17T19:25:12.475Z,61.07
2018-08-17T19:27:43.024Z,60.90
2018-08-17T19:30:24.321Z,60.05
2018-08-17T19:32:58.639Z,58.74
2018-08-17T19:35:28.611Z,59.20
2018-08-17T19:37:58.632Z,58.88
2018-08-17T19:40:28.644Z,58.41
2018-08-17T19:42:58.669Z,57.70
2018-08-17T19:45:29.016Z,57.48
2018-08-17T19:47:59.072Z,56.42
2018-08-17T19:50:29.114Z,57.36
2018-08-17T19:52:59.233Z,56.45
2018-08-17T19:55:29.210Z,56.92
2018-08-17T19:57:59.332Z,57.25
2018-08-17T20:00:29.330Z,57.19
2018-08-17T20:02:59.332Z,57.84
2018-08-17T20:05:29.459Z,57.90
2018-08-17T20:07:59.567Z,58.21
2018-08-17T20:10:29.829Z,59.16
2018-08-17T20:12:59.960Z,59.15
2018-08-17T20:15:30.017Z,59.25
2018-08-17T20:18:00.139Z,58.78
2018-08-17T20:20:30.150Z,59.13
2018-08-17T20:23:02.551Z,58.95
2018-08-17T20:25:32.553Z,59.44
2018-08-17T20:28:02.622Z,59.44
2018-08-17T20:30:32.637Z,60.22
2018-08-17T20:33:02.773Z,60.57
2018-08-17T20:35:32.822Z,61.13
2018-08-17T20:38:02.902Z,61.04
2018-08-17T20:40:33.023Z,61.16
2018-08-17T20:43:03.124Z,61.55
2018-08-17T20:45:33.139Z,61.68
2018-08-17T20:48:03.151Z,62.28
2018-08-17T20:50:33.249Z,62.92
2018-08-17T20:53:03.255Z,62.58
2018-08-17T20:55:33.321Z,62.64
2018-08-17T20:58:03.363Z,63.08
2018-08-17T21:00:33.545Z,62.98
2018-08-17T21:03:03.717Z,64.25
2018-08-17T21:05:33.797Z,64.56
2018-08-17T21:08:03.935Z,65.12
2018-08-17T21:10:34.023Z,65.00
2018-08-17T21:13:04.118Z,65.32
2018-08-17T21:15:34.177Z,65.37
2018-08-17T21:18:04.154Z,66.19
2018-08-17T21:20:34.169Z,66.10
2018-08-17T21:23:04.215Z,66.08
2018-08-17T21:25:34.231Z,66.57
2018-08-17T21:28:04.639Z,66.25
2018-08-17T21:30:34.655Z,66.81
2018-08-17T21:33:04.634Z,66.59
2018-08-17T21:35:34.686Z,67.00
2018-08-17T21:38:04.687Z,67.24
2018-08-17T21:40:34.726Z,66.82
2018-08-17T21:43:04.718Z,67.84
2018-08-17T21:45:34.719Z,68.93
2018-08-17T21:48:04.839Z,69.72
2018-08-17T21:50:34.858Z,72.34
2018-08-17T21:53:04.853Z,72.81
2018-08-17T21:55:34.830Z,74.31
2018-08-17T21:58:04.820Z,75.90
2018-08-17T22:00:35.069Z,76.10
2018-08-17T22:03:17.567Z,76.26
2018-08-17T22:05:47.581Z,77.23
2018-08-17T22:08:17.628Z,78.09
2018-08-17T22:10:47.679Z,77.26
2018-08-17T22:13:29.962Z,78.49
2018-08-17T22:16:00.576Z,78.60
2018-08-17T22:18:31.151Z,78.46
2018-08-17T22:21:01.158Z,79.30
2018-08-17T22:23:31.767Z,78.92
2018-08-17T22:26:01.900Z,79.86
2018-08-17T22:28:31.881Z,80.09
2018-08-17T22:31:01.893Z,80.12
2018-08-17T22:33:31.925Z,80.95
2018-08-17T22:36:02.514Z,80.73
2018-08-17T22:38:36.396Z,80.33
2018-08-17T22:41:06.406Z,80.52
2018-08-17T22:43:36.417Z,81.39
2018-08-17T22:46:06.456Z,80.64
2018-08-17T22:48:36.520Z,79.95
2018-08-17T22:51:06.595Z,81.24
2018-08-17T22:53:36.612Z,80.75
2018-08-17T22:56:06.840Z,80.13
2018-08-17T22:58:41.936Z,80.43
2018-08-17T23:01:11.955Z,79.57
2018-08-17T23:03:46.032Z,80.14
2018-08-17T23:06:16.032Z,79.81
2018-08-17T23:08:46.084Z,80.52
2018-08-17T23:11:33.296Z,80.07
2018-08-17T23:14:11.540Z,79.91
2018-08-17T23:16:41.722Z,80.84
2018-08-17T23:19:11.763Z,80.56
2018-08-17T23:21:41.780Z,80.00
2018-08-17T23:24:11.888Z,80.01
2018-08-17T23:26:41.885Z,80.15
2018-08-17T23:29:11.912Z,79.49
2018-08-17T23:31:41.946Z,79.31
2018-08-17T23:34:11.976Z,80.14
2018-08-17T23:36:41.928Z,79.71
2018-08-17T23:39:12.168Z,79.98
2018-08-17T23:41:42.574Z,80.68
2018-08-17T23:44:12.607Z,79.83
2018-08-17T23:46:49.340Z,80.00
2018-08-17T23:49:19.407Z,80.10
2018-08-17T23:51:49.464Z,80.72
2018-08-17T23:54:19.508Z,81.66
2018-08-17T23:56:49.535Z,81.28
2018-08-17T23:59:19.590Z,81.63
